Airfield :







YOU CAN JOIN US ON...

 
LOGIN :

Register | Disclaimer

   EN    FR    IT 

 









Legend :    VFR   Marginal VFR   IFR   Intensive IFR   Very Intensive IFR
Visi :
Ceiling :
>= 8 km
>= 3000ft
5 to 8 km
1000 to 3000 ft
1500m to 5 km
500 to 1000 ft
800 to 1500m
200 to 500 ft
< 800m
< 200 ft
Symbols :   Thunderstorms  Fog  Heavy snow  Heavy precipitations  Wind > 20 kt






- Airport Elevation : 322 ft


KDAW - Skyhaven

CURRENT METAR :
  • 151951Z AUTO 27008G19KT 10SM FEW048 BKN060 OVC075 06/M04 A2957 RMK AO2 SLP011 T00611039

EXPIRED METARs :
  • 151851Z AUTO 26009G18KT 10SM OVC049 07/M04 A2952 RMK AO2 SLP993 T00671039
  • 151751Z AUTO 28009G21KT 210V330 10SM CLR 06/M05 A2948 RMK AO2 PK WND 29028/1721 SLP982 T00611050 10078 20050 53025

TAF N/A



MET'MAP, your aeronautical weather chart ! - Copyright ORBIFLY December 2007 - Disclaimer

ORBIFLY MET'MAP TEAM :

Programming & Development : Alexandra Zaïnal
Concept & original design : Baudouin d'Aumeries
Assistance for programming : Marc-Olivier Méhu
Technical & hardware support : Manuel Goepfert

Contact : metmap@orbifly.com




SOURCES & CREDITS :

   NOAA